sensor_id;sensor_type;location;lat;lon;timestamp;temperature;humidity
57088;DHT22;42965;52.846;6.614;2022-12-07T00:01:12;3.70;99.90
57088;DHT22;42965;52.846;6.614;2022-12-07T00:03:41;3.70;99.90
57088;DHT22;42965;52.846;6.614;2022-12-07T00:06:10;3.60;99.90
57088;DHT22;42965;52.846;6.614;2022-12-07T00:08:36;3.60;99.90
57088;DHT22;42965;52.846;6.614;2022-12-07T00:11:05;3.50;99.90
57088;DHT22;42965;52.846;6.614;2022-12-07T00:13:33;3.40;99.90
57088;DHT22;42965;52.846;6.614;2022-12-07T00:16:14;3.40;99.90
57088;DHT22;42965;52.846;6.614;2022-12-07T00:18:41;3.30;99.90
57088;DHT22;42965;52.846;6.614;2022-12-07T00:21:11;3.30;99.90
57088;DHT22;42965;52.846;6.614;2022-12-07T00:23:37;3.30;99.90
57088;DHT22;42965;52.846;6.614;2022-12-07T00:26:18;3.30;99.90
57088;DHT22;42965;52.846;6.614;2022-12-07T00:28:47;3.30;99.90
57088;DHT22;42965;52.846;6.614;2022-12-07T00:31:18;3.40;99.90
57088;DHT22;42965;52.846;6.614;2022-12-07T00:33:45;3.40;99.90
57088;DHT22;42965;52.846;6.614;2022-12-07T00:36:14;3.50;99.90
57088;DHT22;42965;52.846;6.614;2022-12-07T00:38:41;3.60;99.90
57088;DHT22;42965;52.846;6.614;2022-12-07T00:43:38;3.60;99.90
57088;DHT22;42965;52.846;6.614;2022-12-07T00:46:05;3.60;99.90
57088;DHT22;42965;52.846;6.614;2022-12-07T00:48:31;3.60;99.90
57088;DHT22;42965;52.846;6.614;2022-12-07T00:50:57;3.60;99.90
57088;DHT22;42965;52.846;6.614;2022-12-07T00:53:23;3.50;99.90
57088;DHT22;42965;52.846;6.614;2022-12-07T00:55:50;3.50;99.90
57088;DHT22;42965;52.846;6.614;2022-12-07T00:58:17;3.40;99.90
57088;DHT22;42965;52.846;6.614;2022-12-07T01:00:43;3.40;99.90
57088;DHT22;42965;52.846;6.614;2022-12-07T01:03:12;3.40;99.90
57088;DHT22;42965;52.846;6.614;2022-12-07T01:05:39;3.40;99.90
57088;DHT22;42965;52.846;6.614;2022-12-07T01:08:06;3.30;99.90
57088;DHT22;42965;52.846;6.614;2022-12-07T01:10:32;3.30;99.90
57088;DHT22;42965;52.846;6.614;2022-12-07T01:12:59;3.40;99.90
57088;DHT22;42965;52.846;6.614;2022-12-07T01:15:25;3.30;99.90
57088;DHT22;42965;52.846;6.614;2022-12-07T01:17:52;3.40;99.90
57088;DHT22;42965;52.846;6.614;2022-12-07T01:20:18;3.50;99.90
57088;DHT22;42965;52.846;6.614;2022-12-07T01:22:45;3.50;99.90
57088;DHT22;42965;52.846;6.614;2022-12-07T01:25:11;3.50;99.90
57088;DHT22;42965;52.846;6.614;2022-12-07T01:27:38;3.50;99.90
57088;DHT22;42965;52.846;6.614;2022-12-07T01:30:05;3.50;99.90
57088;DHT22;42965;52.846;6.614;2022-12-07T01:32:33;3.40;99.90
57088;DHT22;42965;52.846;6.614;2022-12-07T01:34:59;3.40;99.90
57088;DHT22;42965;52.846;6.614;2022-12-07T01:37:25;3.40;99.90
57088;DHT22;42965;52.846;6.614;2022-12-07T01:39:52;3.40;99.90
57088;DHT22;42965;52.846;6.614;2022-12-07T01:42:18;3.40;99.90
57088;DHT22;42965;52.846;6.614;2022-12-07T01:47:54;3.50;99.90
57088;DHT22;42965;52.846;6.614;2022-12-07T01:50:22;3.60;99.90
57088;DHT22;42965;52.846;6.614;2022-12-07T01:52:52;3.60;99.90
57088;DHT22;42965;52.846;6.614;2022-12-07T01:55:19;3.70;99.90
57088;DHT22;42965;52.846;6.614;2022-12-07T01:57:50;3.70;99.90
57088;DHT22;42965;52.846;6.614;2022-12-07T02:00:18;3.80;99.90
57088;DHT22;42965;52.846;6.614;2022-12-07T02:02:57;3.80;99.90
57088;DHT22;42965;52.846;6.614;2022-12-07T02:05:26;3.80;99.90
57088;DHT22;42965;52.846;6.614;2022-12-07T02:07:55;3.90;99.90
57088;DHT22;42965;52.846;6.614;2022-12-07T02:10:25;3.90;99.90
57088;DHT22;42965;52.846;6.614;2022-12-07T02:13:02;3.80;99.90
57088;DHT22;42965;52.846;6.614;2022-12-07T02:29:29;3.50;99.90
57088;DHT22;42965;52.846;6.614;2022-12-07T02:32:42;3.50;99.90
57088;DHT22;42965;52.846;6.614;2022-12-07T02:35:15;3.40;99.90
57088;DHT22;42965;52.846;6.614;2022-12-07T02:37:51;3.30;99.90
57088;DHT22;42965;52.846;6.614;2022-12-07T02:43:17;3.30;99.90
57088;DHT22;42965;52.846;6.614;2022-12-07T02:45:45;3.30;99.90
57088;DHT22;42965;52.846;6.614;2022-12-07T02:48:14;3.40;99.90
57088;DHT22;42965;52.846;6.614;2022-12-07T02:50:48;3.30;99.90
57088;DHT22;42965;52.846;6.614;2022-12-07T02:55:56;3.30;99.90
57088;DHT22;42965;52.846;6.614;2022-12-07T02:58:32;3.30;99.90
57088;DHT22;42965;52.846;6.614;2022-12-07T03:03:48;3.40;99.90
57088;DHT22;42965;52.846;6.614;2022-12-07T03:06:28;3.50;99.90
57088;DHT22;42965;52.846;6.614;2022-12-07T03:09:59;3.50;99.90
57088;DHT22;42965;52.846;6.614;2022-12-07T03:12:06;3.50;99.90
57088;DHT22;42965;52.846;6.614;2022-12-07T03:14:40;3.50;99.90
57088;DHT22;42965;52.846;6.614;2022-12-07T03:17:19;3.40;99.90
57088;DHT22;42965;52.846;6.614;2022-12-07T03:19:49;3.40;99.90
57088;DHT22;42965;52.846;6.614;2022-12-07T03:22:17;3.30;99.90
57088;DHT22;42965;52.846;6.614;2022-12-07T03:24:54;3.40;99.90
57088;DHT22;42965;52.846;6.614;2022-12-07T03:30:10;3.50;99.90
57088;DHT22;42965;52.846;6.614;2022-12-07T03:32:49;3.50;99.90
57088;DHT22;42965;52.846;6.614;2022-12-07T03:40:54;3.70;99.90
57088;DHT22;42965;52.846;6.614;2022-12-07T03:43:21;3.70;99.90
57088;DHT22;42965;52.846;6.614;2022-12-07T03:48:59;3.60;99.90
57088;DHT22;42965;52.846;6.614;2022-12-07T03:56:52;3.40;99.90
57088;DHT22;42965;52.846;6.614;2022-12-07T03:59:19;3.40;99.90
57088;DHT22;42965;52.846;6.614;2022-12-07T04:01:53;3.40;99.90
57088;DHT22;42965;52.846;6.614;2022-12-07T04:04:21;3.40;99.90
57088;DHT22;42965;52.846;6.614;2022-12-07T04:06:47;3.40;99.90
57088;DHT22;42965;52.846;6.614;2022-12-07T04:09:13;3.30;99.90
57088;DHT22;42965;52.846;6.614;2022-12-07T04:11:40;3.30;99.90
57088;DHT22;42965;52.846;6.614;2022-12-07T04:14:06;3.30;99.90
57088;DHT22;42965;52.846;6.614;2022-12-07T04:17:05;3.30;99.90
57088;DHT22;42965;52.846;6.614;2022-12-07T04:19:33;3.30;99.90
57088;DHT22;42965;52.846;6.614;2022-12-07T04:22:01;3.30;99.90
57088;DHT22;42965;52.846;6.614;2022-12-07T04:24:28;3.30;99.90
57088;DHT22;42965;52.846;6.614;2022-12-07T04:26:54;3.40;99.90
57088;DHT22;42965;52.846;6.614;2022-12-07T04:29:21;3.30;99.90
57088;DHT22;42965;52.846;6.614;2022-12-07T04:31:48;3.30;99.90
57088;DHT22;42965;52.846;6.614;2022-12-07T04:34:15;3.20;99.90
57088;DHT22;42965;52.846;6.614;2022-12-07T04:36:42;3.10;99.90
57088;DHT22;42965;52.846;6.614;2022-12-07T04:39:18;3.00;99.90
57088;DHT22;42965;52.846;6.614;2022-12-07T04:41:44;3.00;99.90
57088;DHT22;42965;52.846;6.614;2022-12-07T04:44:13;2.90;99.90
57088;DHT22;42965;52.846;6.614;2022-12-07T04:46:41;2.90;99.90
57088;DHT22;42965;52.846;6.614;2022-12-07T04:49:07;3.00;99.90
57088;DHT22;42965;52.846;6.614;2022-12-07T04:51:34;3.00;99.90
57088;DHT22;42965;52.846;6.614;2022-12-07T04:54:00;3.00;99.90
57088;DHT22;42965;52.846;6.614;2022-12-07T04:56:26;3.00;99.90
57088;DHT22;42965;52.846;6.614;2022-12-07T04:58:54;3.00;99.90
57088;DHT22;42965;52.846;6.614;2022-12-07T05:01:21;3.00;99.90
57088;DHT22;42965;52.846;6.614;2022-12-07T05:03:49;3.00;99.90
57088;DHT22;42965;52.846;6.614;2022-12-07T05:06:15;3.00;99.90
57088;DHT22;42965;52.846;6.614;2022-12-07T05:08:41;3.00;99.90
57088;DHT22;42965;52.846;6.614;2022-12-07T05:11:09;2.90;99.90
57088;DHT22;42965;52.846;6.614;2022-12-07T05:13:56;2.90;99.90
57088;DHT22;42965;52.846;6.614;2022-12-07T05:16:23;2.90;99.90
57088;DHT22;42965;52.846;6.614;2022-12-07T05:18:49;2.90;99.90
57088;DHT22;42965;52.846;6.614;2022-12-07T05:21:15;2.90;99.90
57088;DHT22;42965;52.846;6.614;2022-12-07T05:23:41;2.90;99.90
57088;DHT22;42965;52.846;6.614;2022-12-07T05:26:07;3.00;99.90
57088;DHT22;42965;52.846;6.614;2022-12-07T05:28:33;3.00;99.90
57088;DHT22;42965;52.846;6.614;2022-12-07T05:31:00;3.00;99.90
57088;DHT22;42965;52.846;6.614;2022-12-07T05:33:26;3.00;99.90
57088;DHT22;42965;52.846;6.614;2022-12-07T05:35:52;3.00;99.90
57088;DHT22;42965;52.846;6.614;2022-12-07T05:38:19;2.90;99.90
57088;DHT22;42965;52.846;6.614;2022-12-07T05:40:45;2.90;99.90
57088;DHT22;42965;52.846;6.614;2022-12-07T05:43:11;2.90;99.90
57088;DHT22;42965;52.846;6.614;2022-12-07T05:45:37;2.80;99.90
57088;DHT22;42965;52.846;6.614;2022-12-07T05:48:03;2.80;99.90
57088;DHT22;42965;52.846;6.614;2022-12-07T05:50:29;2.70;99.90
57088;DHT22;42965;52.846;6.614;2022-12-07T05:53:02;2.70;99.90
57088;DHT22;42965;52.846;6.614;2022-12-07T05:55:28;2.70;99.90
57088;DHT22;42965;52.846;6.614;2022-12-07T05:57:54;2.70;99.90
57088;DHT22;42965;52.846;6.614;2022-12-07T06:00:39;2.70;99.90
57088;DHT22;42965;52.846;6.614;2022-12-07T06:03:05;2.60;99.90
57088;DHT22;42965;52.846;6.614;2022-12-07T06:05:32;2.50;99.90
57088;DHT22;42965;52.846;6.614;2022-12-07T06:07:58;2.50;99.90
57088;DHT22;42965;52.846;6.614;2022-12-07T06:10:24;2.40;99.90
57088;DHT22;42965;52.846;6.614;2022-12-07T06:12:50;2.40;99.90
57088;DHT22;42965;52.846;6.614;2022-12-07T06:15:17;2.40;99.90
57088;DHT22;42965;52.846;6.614;2022-12-07T06:17:43;2.40;99.90
57088;DHT22;42965;52.846;6.614;2022-12-07T06:20:09;2.30;99.90
57088;DHT22;42965;52.846;6.614;2022-12-07T06:22:35;2.40;99.90
57088;DHT22;42965;52.846;6.614;2022-12-07T06:25:02;2.30;99.90
57088;DHT22;42965;52.846;6.614;2022-12-07T06:27:29;2.40;99.90
57088;DHT22;42965;52.846;6.614;2022-12-07T06:29:56;2.40;99.90
57088;DHT22;42965;52.846;6.614;2022-12-07T06:32:22;2.50;99.90
57088;DHT22;42965;52.846;6.614;2022-12-07T06:34:48;2.60;99.90
57088;DHT22;42965;52.846;6.614;2022-12-07T06:37:16;2.70;99.90
57088;DHT22;42965;52.846;6.614;2022-12-07T06:39:42;2.70;99.90
57088;DHT22;42965;52.846;6.614;2022-12-07T06:42:09;2.80;99.90
57088;DHT22;42965;52.846;6.614;2022-12-07T06:44:35;2.80;99.90
57088;DHT22;42965;52.846;6.614;2022-12-07T06:47:01;2.90;99.90
57088;DHT22;42965;52.846;6.614;2022-12-07T06:49:28;2.90;99.90
57088;DHT22;42965;52.846;6.614;2022-12-07T06:51:54;2.90;99.90
57088;DHT22;42965;52.846;6.614;2022-12-07T06:54:20;2.80;99.90
57088;DHT22;42965;52.846;6.614;2022-12-07T06:56:46;2.80;99.90
57088;DHT22;42965;52.846;6.614;2022-12-07T06:59:13;2.80;99.90
57088;DHT22;42965;52.846;6.614;2022-12-07T07:01:39;2.80;99.90
57088;DHT22;42965;52.846;6.614;2022-12-07T07:04:05;2.80;99.90
57088;DHT22;42965;52.846;6.614;2022-12-07T07:06:33;2.80;99.90
57088;DHT22;42965;52.846;6.614;2022-12-07T07:08:59;2.90;99.90
57088;DHT22;42965;52.846;6.614;2022-12-07T07:11:26;3.00;99.90
57088;DHT22;42965;52.846;6.614;2022-12-07T07:13:52;3.10;99.90
57088;DHT22;42965;52.846;6.614;2022-12-07T07:16:19;3.20;99.90
57088;DHT22;42965;52.846;6.614;2022-12-07T07:18:46;3.20;99.90
57088;DHT22;42965;52.846;6.614;2022-12-07T07:21:12;3.30;99.90
57088;DHT22;42965;52.846;6.614;2022-12-07T07:23:38;3.30;99.90
57088;DHT22;42965;52.846;6.614;2022-12-07T07:26:04;3.30;99.90
57088;DHT22;42965;52.846;6.614;2022-12-07T07:28:30;3.30;99.90
57088;DHT22;42965;52.846;6.614;2022-12-07T07:30:57;3.30;99.90
57088;DHT22;42965;52.846;6.614;2022-12-07T07:33:23;3.30;99.90
57088;DHT22;42965;52.846;6.614;2022-12-07T07:35:49;3.30;99.90
57088;DHT22;42965;52.846;6.614;2022-12-07T07:38:15;3.20;99.90
57088;DHT22;42965;52.846;6.614;2022-12-07T07:40:42;3.20;99.90
57088;DHT22;42965;52.846;6.614;2022-12-07T07:43:08;3.10;99.90
57088;DHT22;42965;52.846;6.614;2022-12-07T07:45:34;3.00;99.90
57088;DHT22;42965;52.846;6.614;2022-12-07T07:48:00;3.00;99.90
57088;DHT22;42965;52.846;6.614;2022-12-07T07:50:26;3.00;99.90
57088;DHT22;42965;52.846;6.614;2022-12-07T07:52:52;3.00;99.90
57088;DHT22;42965;52.846;6.614;2022-12-07T07:55:19;3.00;99.90
57088;DHT22;42965;52.846;6.614;2022-12-07T07:57:45;3.10;99.90
57088;DHT22;42965;52.846;6.614;2022-12-07T08:00:13;3.10;99.90
57088;DHT22;42965;52.846;6.614;2022-12-07T08:02:41;3.20;99.90
57088;DHT22;42965;52.846;6.614;2022-12-07T08:05:12;3.20;99.90
57088;DHT22;42965;52.846;6.614;2022-12-07T08:07:40;3.40;99.90
57088;DHT22;42965;52.846;6.614;2022-12-07T08:10:08;3.30;99.90
57088;DHT22;42965;52.846;6.614;2022-12-07T08:12:38;3.30;99.90
57088;DHT22;42965;52.846;6.614;2022-12-07T08:15:25;3.30;99.90
57088;DHT22;42965;52.846;6.614;2022-12-07T08:17:52;3.40;99.90
57088;DHT22;42965;52.846;6.614;2022-12-07T08:20:18;3.40;99.90
57088;DHT22;42965;52.846;6.614;2022-12-07T08:22:44;3.50;99.90
57088;DHT22;42965;52.846;6.614;2022-12-07T08:25:10;3.50;99.90
57088;DHT22;42965;52.846;6.614;2022-12-07T08:27:36;3.50;99.90
57088;DHT22;42965;52.846;6.614;2022-12-07T08:30:03;3.60;99.90
57088;DHT22;42965;52.846;6.614;2022-12-07T08:32:29;3.50;99.90
57088;DHT22;42965;52.846;6.614;2022-12-07T08:34:55;3.50;99.90
57088;DHT22;42965;52.846;6.614;2022-12-07T08:37:22;3.40;99.90
57088;DHT22;42965;52.846;6.614;2022-12-07T08:39:48;3.40;99.90
57088;DHT22;42965;52.846;6.614;2022-12-07T08:42:14;3.30;99.90
57088;DHT22;42965;52.846;6.614;2022-12-07T08:44:40;3.30;99.90
57088;DHT22;42965;52.846;6.614;2022-12-07T08:47:07;3.40;99.90
57088;DHT22;42965;52.846;6.614;2022-12-07T08:49:38;3.50;99.90
57088;DHT22;42965;52.846;6.614;2022-12-07T08:52:05;3.70;99.90
57088;DHT22;42965;52.846;6.614;2022-12-07T08:54:35;4.00;99.90
57088;DHT22;42965;52.846;6.614;2022-12-07T08:57:03;4.10;99.90
57088;DHT22;42965;52.846;6.614;2022-12-07T08:59:29;4.20;99.90
57088;DHT22;42965;52.846;6.614;2022-12-07T09:01:56;4.10;99.90
57088;DHT22;42965;52.846;6.614;2022-12-07T09:04:22;4.10;99.90
57088;DHT22;42965;52.846;6.614;2022-12-07T09:06:48;4.00;99.90
57088;DHT22;42965;52.846;6.614;2022-12-07T09:09:16;3.90;99.90
57088;DHT22;42965;52.846;6.614;2022-12-07T09:11:42;3.90;99.90
57088;DHT22;42965;52.846;6.614;2022-12-07T09:14:08;3.80;99.90
57088;DHT22;42965;52.846;6.614;2022-12-07T09:16:34;3.90;99.90
57088;DHT22;42965;52.846;6.614;2022-12-07T09:19:00;3.90;99.90
57088;DHT22;42965;52.846;6.614;2022-12-07T09:21:27;3.90;99.90
57088;DHT22;42965;52.846;6.614;2022-12-07T09:23:53;3.90;99.90
57088;DHT22;42965;52.846;6.614;2022-12-07T09:26:19;3.80;99.90
57088;DHT22;42965;52.846;6.614;2022-12-07T09:28:45;3.80;99.90
57088;DHT22;42965;52.846;6.614;2022-12-07T09:31:11;3.70;99.90
57088;DHT22;42965;52.846;6.614;2022-12-07T09:33:38;3.80;99.90
57088;DHT22;42965;52.846;6.614;2022-12-07T09:36:04;3.90;99.90
57088;DHT22;42965;52.846;6.614;2022-12-07T09:38:31;4.00;99.90
57088;DHT22;42965;52.846;6.614;2022-12-07T09:41:04;4.00;99.90
57088;DHT22;42965;52.846;6.614;2022-12-07T09:43:31;4.10;99.90
57088;DHT22;42965;52.846;6.614;2022-12-07T09:45:57;4.20;99.90
57088;DHT22;42965;52.846;6.614;2022-12-07T09:48:43;4.50;99.90
57088;DHT22;42965;52.846;6.614;2022-12-07T09:51:21;4.70;99.90
57088;DHT22;42965;52.846;6.614;2022-12-07T09:53:49;5.00;99.90
57088;DHT22;42965;52.846;6.614;2022-12-07T09:56:18;5.10;99.90
57088;DHT22;42965;52.846;6.614;2022-12-07T09:58:45;5.10;99.90
57088;DHT22;42965;52.846;6.614;2022-12-07T10:01:18;5.10;99.90
57088;DHT22;42965;52.846;6.614;2022-12-07T10:03:55;5.00;99.90
57088;DHT22;42965;52.846;6.614;2022-12-07T10:06:24;5.00;99.90
57088;DHT22;42965;52.846;6.614;2022-12-07T10:08:51;5.00;99.90
57088;DHT22;42965;52.846;6.614;2022-12-07T10:11:18;4.90;99.90
57088;DHT22;42965;52.846;6.614;2022-12-07T10:13:49;4.90;99.90
57088;DHT22;42965;52.846;6.614;2022-12-07T10:18:54;4.90;99.90
57088;DHT22;42965;52.846;6.614;2022-12-07T10:21:27;4.90;99.90
57088;DHT22;42965;52.846;6.614;2022-12-07T10:26:50;4.90;99.90
57088;DHT22;42965;52.846;6.614;2022-12-07T10:29:20;4.90;99.90
57088;DHT22;42965;52.846;6.614;2022-12-07T10:31:52;4.90;99.90
57088;DHT22;42965;52.846;6.614;2022-12-07T10:34:26;5.00;99.90
57088;DHT22;42965;52.846;6.614;2022-12-07T10:36:53;5.10;99.90
57088;DHT22;42965;52.846;6.614;2022-12-07T10:39:44;5.10;99.90
57088;DHT22;42965;52.846;6.614;2022-12-07T10:42:19;5.20;99.90
57088;DHT22;42965;52.846;6.614;2022-12-07T10:44:47;5.20;99.90
57088;DHT22;42965;52.846;6.614;2022-12-07T10:53:19;5.50;99.90
57088;DHT22;42965;52.846;6.614;2022-12-07T10:56:13;5.70;99.90
57088;DHT22;42965;52.846;6.614;2022-12-07T11:01:45;6.30;99.90
57088;DHT22;42965;52.846;6.614;2022-12-07T11:10:03;6.40;99.90
57088;DHT22;42965;52.846;6.614;2022-12-07T11:13:04;6.40;99.90
57088;DHT22;42965;52.846;6.614;2022-12-07T11:24:16;6.50;99.90
57088;DHT22;42965;52.846;6.614;2022-12-07T11:37:21;6.10;99.90
57088;DHT22;42965;52.846;6.614;2022-12-07T11:39:54;6.30;99.90
57088;DHT22;42965;52.846;6.614;2022-12-07T11:42:27;6.20;99.90
57088;DHT22;42965;52.846;6.614;2022-12-07T11:45:10;6.20;99.90
57088;DHT22;42965;52.846;6.614;2022-12-07T11:47:48;6.20;99.90
57088;DHT22;42965;52.846;6.614;2022-12-07T11:50:26;6.30;99.90
57088;DHT22;42965;52.846;6.614;2022-12-07T11:53:09;6.30;99.90
57088;DHT22;42965;52.846;6.614;2022-12-07T11:58:56;6.60;99.90
57088;DHT22;42965;52.846;6.614;2022-12-07T12:06:45;7.00;99.90
57088;DHT22;42965;52.846;6.614;2022-12-07T12:09:16;7.60;99.90
57088;DHT22;42965;52.846;6.614;2022-12-07T12:17:52;8.80;99.90
57088;DHT22;42965;52.846;6.614;2022-12-07T12:20:46;8.60;99.90
57088;DHT22;42965;52.846;6.614;2022-12-07T12:23:27;8.50;99.90
57088;DHT22;42965;52.846;6.614;2022-12-07T12:25:59;8.10;99.90
57088;DHT22;42965;52.846;6.614;2022-12-07T12:28:28;7.70;99.90
57088;DHT22;42965;52.846;6.614;2022-12-07T12:33:54;7.50;99.90
57088;DHT22;42965;52.846;6.614;2022-12-07T12:36:25;7.40;99.90
57088;DHT22;42965;52.846;6.614;2022-12-07T12:47:02;7.70;99.90
57088;DHT22;42965;52.846;6.614;2022-12-07T12:52:49;8.20;99.90
57088;DHT22;42965;52.846;6.614;2022-12-07T12:57:30;7.90;99.90
57088;DHT22;42965;52.846;6.614;2022-12-07T13:00:02;7.80;99.90
57088;DHT22;42965;52.846;6.614;2022-12-07T13:02:35;7.60;99.90
57088;DHT22;42965;52.846;6.614;2022-12-07T13:05:18;7.30;99.90
57088;DHT22;42965;52.846;6.614;2022-12-07T13:15:50;6.70;99.90
57088;DHT22;42965;52.846;6.614;2022-12-07T13:18:37;6.60;99.90
57088;DHT22;42965;52.846;6.614;2022-12-07T13:26:19;6.10;99.90
57088;DHT22;42965;52.846;6.614;2022-12-07T13:31:41;5.80;99.90
57088;DHT22;42965;52.846;6.614;2022-12-07T13:34:34;5.60;99.90
57088;DHT22;42965;52.846;6.614;2022-12-07T13:37:08;5.60;99.90
57088;DHT22;42965;52.846;6.614;2022-12-07T13:39:49;5.60;99.90
57088;DHT22;42965;52.846;6.614;2022-12-07T13:44:48;5.40;99.90
57088;DHT22;42965;52.846;6.614;2022-12-07T13:49:57;5.40;99.90
57088;DHT22;42965;52.846;6.614;2022-12-07T13:52:29;5.40;99.90
57088;DHT22;42965;52.846;6.614;2022-12-07T13:55:14;5.40;99.90
57088;DHT22;42965;52.846;6.614;2022-12-07T13:57:41;5.30;99.90
57088;DHT22;42965;52.846;6.614;2022-12-07T14:00:25;5.20;99.90
57088;DHT22;42965;52.846;6.614;2022-12-07T14:03:00;5.20;99.90
57088;DHT22;42965;52.846;6.614;2022-12-07T14:05:29;5.20;99.90
57088;DHT22;42965;52.846;6.614;2022-12-07T14:12:57;5.20;99.90
57088;DHT22;42965;52.846;6.614;2022-12-07T14:15:33;5.20;99.90
57088;DHT22;42965;52.846;6.614;2022-12-07T14:18:02;5.10;99.90
57088;DHT22;42965;52.846;6.614;2022-12-07T14:20:32;5.20;99.90
57088;DHT22;42965;52.846;6.614;2022-12-07T14:22:59;5.20;99.90
57088;DHT22;42965;52.846;6.614;2022-12-07T14:25:49;5.10;99.90
57088;DHT22;42965;52.846;6.614;2022-12-07T14:30:52;5.00;99.90
57088;DHT22;42965;52.846;6.614;2022-12-07T14:33:19;5.10;99.90
57088;DHT22;42965;52.846;6.614;2022-12-07T14:35:46;5.10;99.90
57088;DHT22;42965;52.846;6.614;2022-12-07T14:38:13;5.00;99.90
57088;DHT22;42965;52.846;6.614;2022-12-07T14:40:39;5.00;99.90
57088;DHT22;42965;52.846;6.614;2022-12-07T14:43:10;5.00;99.90
57088;DHT22;42965;52.846;6.614;2022-12-07T14:45:37;5.00;99.90
57088;DHT22;42965;52.846;6.614;2022-12-07T14:48:03;5.00;99.90
57088;DHT22;42965;52.846;6.614;2022-12-07T14:50:30;5.00;99.90
57088;DHT22;42965;52.846;6.614;2022-12-07T14:53:12;5.00;99.90
57088;DHT22;42965;52.846;6.614;2022-12-07T14:55:40;5.00;99.90
57088;DHT22;42965;52.846;6.614;2022-12-07T14:58:09;5.00;99.90
57088;DHT22;42965;52.846;6.614;2022-12-07T15:00:37;5.00;99.90
57088;DHT22;42965;52.846;6.614;2022-12-07T15:03:03;4.90;99.90
57088;DHT22;42965;52.846;6.614;2022-12-07T15:05:29;4.90;99.90
57088;DHT22;42965;52.846;6.614;2022-12-07T15:07:55;4.90;99.90
57088;DHT22;42965;52.846;6.614;2022-12-07T15:10:25;4.90;99.90
57088;DHT22;42965;52.846;6.614;2022-12-07T15:12:59;4.90;99.90
57088;DHT22;42965;52.846;6.614;2022-12-07T15:15:44;4.90;99.90
57088;DHT22;42965;52.846;6.614;2022-12-07T15:18:11;4.90;99.90
57088;DHT22;42965;52.846;6.614;2022-12-07T15:20:38;4.90;99.90
57088;DHT22;42965;52.846;6.614;2022-12-07T15:23:05;4.80;99.90
57088;DHT22;42965;52.846;6.614;2022-12-07T15:25:31;4.90;99.90
57088;DHT22;42965;52.846;6.614;2022-12-07T15:27:57;4.80;99.90
57088;DHT22;42965;52.846;6.614;2022-12-07T15:30:24;4.80;99.90
57088;DHT22;42965;52.846;6.614;2022-12-07T15:32:53;4.80;99.90
57088;DHT22;42965;52.846;6.614;2022-12-07T15:35:20;4.80;99.90
57088;DHT22;42965;52.846;6.614;2022-12-07T15:37:47;4.80;99.90
57088;DHT22;42965;52.846;6.614;2022-12-07T15:40:13;4.80;99.90
57088;DHT22;42965;52.846;6.614;2022-12-07T15:42:40;4.70;99.90
57088;DHT22;42965;52.846;6.614;2022-12-07T15:45:07;4.70;99.90
57088;DHT22;42965;52.846;6.614;2022-12-07T15:47:40;4.70;99.90
57088;DHT22;42965;52.846;6.614;2022-12-07T15:50:16;4.70;99.90
57088;DHT22;42965;52.846;6.614;2022-12-07T15:52:42;4.60;99.90
57088;DHT22;42965;52.846;6.614;2022-12-07T15:55:09;4.60;99.90
57088;DHT22;42965;52.846;6.614;2022-12-07T15:57:37;4.60;99.90
57088;DHT22;42965;52.846;6.614;2022-12-07T16:00:05;4.50;99.90
57088;DHT22;42965;52.846;6.614;2022-12-07T16:02:32;4.50;99.90
57088;DHT22;42965;52.846;6.614;2022-12-07T16:04:59;4.50;99.90
57088;DHT22;42965;52.846;6.614;2022-12-07T16:07:25;4.50;99.90
57088;DHT22;42965;52.846;6.614;2022-12-07T16:09:51;4.40;99.90
57088;DHT22;42965;52.846;6.614;2022-12-07T16:12:17;4.40;99.90
57088;DHT22;42965;52.846;6.614;2022-12-07T16:14:44;4.40;99.90
57088;DHT22;42965;52.846;6.614;2022-12-07T16:17:10;4.40;99.90
57088;DHT22;42965;52.846;6.614;2022-12-07T16:19:37;4.40;99.90
57088;DHT22;42965;52.846;6.614;2022-12-07T16:22:04;4.50;99.90
57088;DHT22;42965;52.846;6.614;2022-12-07T16:24:31;4.40;99.90
57088;DHT22;42965;52.846;6.614;2022-12-07T16:26:57;4.40;99.90
57088;DHT22;42965;52.846;6.614;2022-12-07T16:29:24;4.40;99.90
57088;DHT22;42965;52.846;6.614;2022-12-07T16:31:51;4.40;99.90
57088;DHT22;42965;52.846;6.614;2022-12-07T16:34:18;4.40;99.90
57088;DHT22;42965;52.846;6.614;2022-12-07T16:36:45;4.30;99.90
57088;DHT22;42965;52.846;6.614;2022-12-07T16:39:12;4.30;99.90
57088;DHT22;42965;52.846;6.614;2022-12-07T16:41:38;4.30;99.90
57088;DHT22;42965;52.846;6.614;2022-12-07T16:44:07;4.30;99.90
57088;DHT22;42965;52.846;6.614;2022-12-07T16:58:18;4.20;99.90
57088;DHT22;42965;52.846;6.614;2022-12-07T17:00:47;4.20;99.90
57088;DHT22;42965;52.846;6.614;2022-12-07T17:03:14;4.10;99.90
57088;DHT22;42965;52.846;6.614;2022-12-07T17:05:43;4.10;99.90
57088;DHT22;42965;52.846;6.614;2022-12-07T17:08:11;4.00;99.90
57088;DHT22;42965;52.846;6.614;2022-12-07T17:10:40;4.00;99.90
57088;DHT22;42965;52.846;6.614;2022-12-07T17:13:08;4.00;99.90
57088;DHT22;42965;52.846;6.614;2022-12-07T17:16:03;3.90;99.90
57088;DHT22;42965;52.846;6.614;2022-12-07T17:18:33;3.90;99.90
57088;DHT22;42965;52.846;6.614;2022-12-07T17:21:05;3.90;99.90
57088;DHT22;42965;52.846;6.614;2022-12-07T17:23:33;3.80;99.90
57088;DHT22;42965;52.846;6.614;2022-12-07T17:26:08;3.80;99.90
57088;DHT22;42965;52.846;6.614;2022-12-07T17:28:35;3.80;99.90
57088;DHT22;42965;52.846;6.614;2022-12-07T17:31:05;3.70;99.90
57088;DHT22;42965;52.846;6.614;2022-12-07T17:33:32;3.70;99.90
57088;DHT22;42965;52.846;6.614;2022-12-07T17:36:00;3.60;99.90
57088;DHT22;42965;52.846;6.614;2022-12-07T17:38:28;3.60;99.90
57088;DHT22;42965;52.846;6.614;2022-12-07T17:40:54;3.50;99.90
57088;DHT22;42965;52.846;6.614;2022-12-07T17:43:20;3.50;99.90
57088;DHT22;42965;52.846;6.614;2022-12-07T17:45:46;3.40;99.90
57088;DHT22;42965;52.846;6.614;2022-12-07T17:48:13;3.40;99.90
57088;DHT22;42965;52.846;6.614;2022-12-07T17:50:39;3.40;99.90
57088;DHT22;42965;52.846;6.614;2022-12-07T17:53:24;3.40;99.90
57088;DHT22;42965;52.846;6.614;2022-12-07T17:55:53;3.40;99.90
57088;DHT22;42965;52.846;6.614;2022-12-07T17:58:22;3.40;99.90
57088;DHT22;42965;52.846;6.614;2022-12-07T18:00:48;3.40;99.90
57088;DHT22;42965;52.846;6.614;2022-12-07T18:03:14;3.40;99.90
57088;DHT22;42965;52.846;6.614;2022-12-07T18:05:42;3.40;99.90
57088;DHT22;42965;52.846;6.614;2022-12-07T18:08:09;3.40;99.90
57088;DHT22;42965;52.846;6.614;2022-12-07T18:10:35;3.40;99.90
57088;DHT22;42965;52.846;6.614;2022-12-07T18:13:01;3.50;99.90
57088;DHT22;42965;52.846;6.614;2022-12-07T18:15:46;3.50;99.90
57088;DHT22;42965;52.846;6.614;2022-12-07T18:18:12;3.50;99.90
57088;DHT22;42965;52.846;6.614;2022-12-07T18:20:38;3.50;99.90
57088;DHT22;42965;52.846;6.614;2022-12-07T18:23:05;3.50;99.90
57088;DHT22;42965;52.846;6.614;2022-12-07T18:25:31;3.50;99.90
57088;DHT22;42965;52.846;6.614;2022-12-07T18:27:58;3.50;99.90
57088;DHT22;42965;52.846;6.614;2022-12-07T18:30:24;3.50;99.90
57088;DHT22;42965;52.846;6.614;2022-12-07T18:32:50;3.50;99.90
57088;DHT22;42965;52.846;6.614;2022-12-07T18:35:16;3.50;99.90